createdAt,value
2022-10-30T03:57:21.157Z,104.00
2022-10-30T04:01:06.943Z,101.50
2022-10-30T04:04:32.606Z,108.10
2022-10-30T04:07:57.997Z,107.10
2022-10-30T04:11:21.714Z,118.90
2022-10-30T04:14:45.311Z,115.70
2022-10-30T04:18:11.182Z,111.70
2022-10-30T04:21:34.628Z,119.70
2022-10-30T04:24:57.894Z,115.50
2022-10-30T04:28:21.823Z,116.30
2022-10-30T04:31:45.146Z,121.60
2022-10-30T04:35:10.159Z,120.40
2022-10-30T04:38:33.797Z,106.50
2022-10-30T04:41:57.307Z,114.20
2022-10-30T04:48:50.364Z,113.90
2022-10-30T04:52:13.546Z,104.20
2022-10-30T04:55:37.136Z,97.20
2022-10-30T04:59:01.015Z,102.20
2022-10-30T05:02:25.239Z,113.40
2022-10-30T05:05:57.875Z,106.30
2022-10-30T05:09:21.456Z,101.00
2022-10-30T05:12:45.535Z,109.20
2022-10-30T05:16:09.331Z,99.70
2022-10-30T05:19:32.655Z,113.20
2022-10-30T05:22:57.918Z,226.20
2022-10-30T05:26:22.662Z,260.90
2022-10-30T05:29:47.955Z,295.60
2022-10-30T05:33:15.240Z,227.30
2022-10-30T05:36:40.228Z,283.40
2022-10-30T05:40:07.962Z,269.50
2022-10-30T05:43:31.693Z,226.90
2022-10-30T05:50:26.120Z,131.10
2022-10-30T05:54:08.626Z,143.60
2022-10-30T05:57:33.729Z,105.50
2022-10-30T06:00:58.001Z,116.10
2022-10-30T06:04:31.733Z,105.00
2022-10-30T06:07:57.672Z,459.60
2022-10-30T06:11:21.673Z,278.90
2022-10-30T06:14:50.513Z,208.40
2022-10-30T06:18:14.014Z,188.40
2022-10-30T06:21:42.850Z,110.00
2022-10-30T06:25:39.361Z,182.40
2022-10-30T06:29:27.778Z,108.90
2022-10-30T06:32:58.036Z,173.00
2022-10-30T06:36:21.844Z,138.30
2022-10-30T06:39:45.317Z,120.00
2022-10-30T06:43:27.319Z,100.00
2022-10-30T06:47:01.474Z,86.80
2022-10-30T06:50:28.460Z,85.70
2022-10-30T06:53:52.081Z,76.10
2022-10-30T06:57:33.920Z,64.90
2022-10-30T07:01:09.593Z,78.40
2022-10-30T07:04:53.447Z,85.90
2022-10-30T07:08:17.287Z,80.00
2022-10-30T07:11:45.379Z,61.70
2022-10-30T07:15:38.800Z,60.60
2022-10-30T07:19:14.623Z,56.90
2022-10-30T07:22:39.723Z,55.50
2022-10-30T07:26:05.279Z,50.30
2022-10-30T07:29:32.769Z,45.80
2022-10-30T07:33:35.195Z,42.20
2022-10-30T07:37:11.719Z,44.10
2022-10-30T07:40:44.121Z,39.80
2022-10-30T07:44:22.072Z,39.70
2022-10-30T07:47:59.719Z,40.10
2022-10-30T07:51:42.599Z,46.90
2022-10-30T07:55:08.955Z,41.00
2022-10-30T07:58:45.966Z,44.30
2022-10-30T08:02:28.115Z,39.30
2022-10-30T08:09:40.351Z,39.70
2022-10-30T08:13:04.628Z,39.60
2022-10-30T08:16:28.334Z,42.40
2022-10-30T08:19:51.993Z,40.50
2022-10-30T08:23:17.165Z,37.90
2022-10-30T08:26:40.826Z,44.00
2022-10-30T08:30:08.591Z,40.80
2022-10-30T08:33:32.642Z,42.20
2022-10-30T08:37:16.833Z,37.40
2022-10-30T08:40:40.913Z,41.00
2022-10-30T08:44:05.439Z,37.90
2022-10-30T08:47:45.130Z,38.90
2022-10-30T08:51:09.519Z,39.90
2022-10-30T08:54:38.408Z,39.90
2022-10-30T08:58:03.314Z,41.90
2022-10-30T09:01:27.260Z,38.00
2022-10-30T09:05:10.194Z,36.20
2022-10-30T09:08:59.837Z,35.40
2022-10-30T09:12:30.357Z,39.10
2022-10-30T09:15:54.512Z,40.30
2022-10-30T09:19:19.050Z,39.30
2022-10-30T09:22:43.063Z,43.90
2022-10-30T09:26:07.131Z,39.60
2022-10-30T09:29:40.528Z,42.50
2022-10-30T09:33:24.369Z,36.60
2022-10-30T09:37:18.626Z,36.30
2022-10-30T09:41:02.187Z,35.60
2022-10-30T09:44:40.710Z,43.70
2022-10-30T09:48:20.224Z,39.00
2022-10-30T09:52:08.412Z,39.60
2022-10-30T09:55:42.436Z,42.10
2022-10-30T09:59:14.832Z,34.90
2022-10-30T10:02:47.054Z,38.70
2022-10-30T10:06:18.051Z,36.70
2022-10-30T10:10:07.200Z,35.00
2022-10-30T10:13:44.668Z,34.30
2022-10-30T10:17:13.623Z,38.90
2022-10-30T10:20:42.136Z,38.00
2022-10-30T10:24:19.741Z,35.90
2022-10-30T10:27:54.095Z,36.60
2022-10-30T10:31:31.493Z,32.90
2022-10-30T10:35:20.547Z,36.60
2022-10-30T10:38:55.590Z,36.20
2022-10-30T10:42:34.007Z,33.40
2022-10-30T10:46:13.610Z,31.90
2022-10-30T10:49:56.706Z,32.50
2022-10-30T10:53:24.399Z,28.00
2022-10-30T10:56:51.280Z,31.00
2022-10-30T11:00:18.711Z,33.40
2022-10-30T11:03:52.815Z,35.50
2022-10-30T11:07:21.506Z,27.10
2022-10-30T11:10:46.359Z,26.40
2022-10-30T11:14:14.741Z,30.80
2022-10-30T11:17:43.806Z,34.50
2022-10-30T11:21:11.466Z,41.20
2022-10-30T11:24:35.830Z,29.20
2022-10-30T11:28:03.869Z,30.70
2022-10-30T11:31:34.118Z,27.40
2022-10-30T11:35:11.868Z,25.30
2022-10-30T11:38:35.284Z,27.90
2022-10-30T11:42:03.552Z,25.20
2022-10-30T11:45:29.306Z,30.40
2022-10-30T11:48:54.325Z,25.80
2022-10-30T11:52:21.209Z,24.70
2022-10-30T11:55:48.419Z,31.00
2022-10-30T11:59:21.550Z,34.40
2022-10-30T12:02:48.201Z,29.00
2022-10-30T12:06:18.712Z,27.50
2022-10-30T12:09:46.768Z,27.90
2022-10-30T12:13:15.046Z,25.90
2022-10-30T12:16:46.847Z,24.10
2022-10-30T12:20:16.235Z,28.00
2022-10-30T12:23:40.022Z,35.10
2022-10-30T12:27:06.807Z,29.30
2022-10-30T12:30:36.481Z,28.40
2022-10-30T12:34:12.730Z,30.60
2022-10-30T12:37:41.389Z,21.60
2022-10-30T12:41:16.159Z,27.50
2022-10-30T12:44:44.538Z,25.40
2022-10-30T12:48:16.836Z,26.60
2022-10-30T12:51:47.689Z,30.40
2022-10-30T12:55:19.032Z,33.80
2022-10-30T12:58:47.802Z,35.70
2022-10-30T13:02:23.572Z,36.70
2022-10-30T13:09:24.714Z,39.60
2022-10-30T13:12:53.879Z,39.40
2022-10-30T13:16:22.359Z,28.40
2022-10-30T13:19:47.536Z,24.90
2022-10-30T13:23:15.272Z,27.00
2022-10-30T13:26:46.005Z,28.40
2022-10-30T13:30:15.494Z,27.40
2022-10-30T13:33:44.825Z,32.30
2022-10-30T13:37:14.759Z,35.60
2022-10-30T13:40:42.467Z,34.20
2022-10-30T13:44:17.076Z,35.10
2022-10-30T13:47:48.853Z,35.70
2022-10-30T13:51:30.390Z,37.70
2022-10-30T13:55:01.702Z,35.10
2022-10-30T13:58:34.897Z,36.70
2022-10-30T14:02:06.195Z,45.10
2022-10-30T14:05:39.231Z,47.60
2022-10-30T14:09:12.567Z,47.30
2022-10-30T14:13:05.138Z,49.70
2022-10-30T14:16:41.489Z,50.40
2022-10-30T14:20:27.927Z,45.10
2022-10-30T14:24:04.240Z,36.10
2022-10-30T14:27:30.295Z,42.80
2022-10-30T14:31:04.418Z,48.40
2022-10-30T14:34:43.651Z,37.80
2022-10-30T14:38:24.380Z,40.40
2022-10-30T14:42:02.517Z,44.60
2022-10-30T14:45:31.677Z,41.20
2022-10-30T14:49:04.018Z,39.30
2022-10-30T14:52:43.660Z,34.50
2022-10-30T14:59:34.764Z,45.50
2022-10-30T15:03:03.138Z,45.00
2022-10-30T15:06:32.839Z,42.30
2022-10-30T15:10:11.336Z,40.60
2022-10-30T15:13:35.245Z,46.00
2022-10-30T15:16:58.837Z,45.50
2022-10-30T15:20:24.359Z,42.50
2022-10-30T15:23:47.595Z,43.60
2022-10-30T15:27:17.686Z,54.60
2022-10-30T15:30:59.900Z,71.10
2022-10-30T15:34:24.641Z,159.80
2022-10-30T15:38:02.549Z,217.70
2022-10-30T15:41:26.876Z,131.60
2022-10-30T15:44:51.391Z,86.30
2022-10-30T15:48:23.304Z,74.90
2022-10-30T15:51:47.937Z,75.90
2022-10-30T15:55:16.677Z,88.30
2022-10-30T15:58:40.487Z,86.60
2022-10-30T16:02:21.144Z,74.10
2022-10-30T16:05:44.641Z,76.90
2022-10-30T16:09:15.068Z,118.90
2022-10-30T16:12:38.638Z,115.90
2022-10-30T16:16:04.019Z,112.60
2022-10-30T16:19:30.100Z,112.60
2022-10-30T16:22:54.539Z,93.10
2022-10-30T16:26:29.458Z,142.40
2022-10-30T16:29:56.799Z,117.30
2022-10-30T16:33:25.198Z,131.80
2022-10-30T16:36:50.198Z,133.20
2022-10-30T16:40:16.061Z,130.50
2022-10-30T16:43:41.574Z,100.10
2022-10-30T16:47:18.999Z,83.10
2022-10-30T16:50:42.793Z,82.80
2022-10-30T16:54:17.008Z,138.10
2022-10-30T16:57:43.747Z,123.20
2022-10-30T17:01:09.016Z,108.90
2022-10-30T17:04:34.488Z,182.50
2022-10-30T17:07:59.849Z,144.60
2022-10-30T17:11:36.444Z,118.20
2022-10-30T17:15:12.482Z,143.30
2022-10-30T17:18:36.238Z,139.60
2022-10-30T17:22:03.333Z,170.90
2022-10-30T17:25:36.123Z,175.60
2022-10-30T17:29:00.044Z,170.50
2022-10-30T17:32:25.273Z,180.30
2022-10-30T17:35:48.762Z,159.40
2022-10-30T17:39:13.140Z,142.10
2022-10-30T17:42:36.650Z,191.70
2022-10-30T17:46:00.136Z,200.10
2022-10-30T17:49:29.625Z,162.90
2022-10-30T17:52:53.225Z,191.20
2022-10-30T17:56:19.902Z,155.10
2022-10-30T17:59:44.084Z,130.80
2022-10-30T18:03:08.059Z,122.80
2022-10-30T18:06:31.644Z,116.10
2022-10-30T18:09:55.440Z,118.00
2022-10-30T18:13:19.700Z,129.90
2022-10-30T18:16:43.195Z,121.20
2022-10-30T18:20:09.246Z,115.90
2022-10-30T18:23:51.216Z,127.70
2022-10-30T18:27:15.835Z,136.10
2022-10-30T18:30:40.195Z,135.50
2022-10-30T18:34:04.266Z,129.00
2022-10-30T18:37:27.574Z,138.40
2022-10-30T18:40:51.524Z,130.80
2022-10-30T18:44:16.490Z,128.80
2022-10-30T18:47:39.833Z,125.80
2022-10-30T18:51:04.596Z,127.40
2022-10-30T18:54:28.268Z,194.00
2022-10-30T18:57:52.987Z,188.70
2022-10-30T19:01:17.914Z,180.90
2022-10-30T19:04:41.907Z,172.20
2022-10-30T19:08:06.629Z,156.30
2022-10-30T19:11:31.895Z,160.20
2022-10-30T19:14:56.458Z,155.30
2022-10-30T19:18:21.010Z,185.40
2022-10-30T19:21:44.759Z,189.30
2022-10-30T19:25:18.217Z,187.30
2022-10-30T19:28:41.947Z,198.50
2022-10-30T19:32:05.309Z,167.50
2022-10-30T19:35:29.446Z,160.00
2022-10-30T19:38:53.187Z,154.50
2022-10-30T19:42:17.020Z,165.90
2022-10-30T19:45:40.497Z,147.00
2022-10-30T19:49:15.720Z,149.40
2022-10-30T19:52:40.922Z,157.90
2022-10-30T19:56:06.925Z,150.70
2022-10-30T19:59:31.822Z,142.50
2022-10-30T20:02:58.288Z,145.40
2022-10-30T20:06:22.767Z,224.80
2022-10-30T20:09:47.030Z,465.00
2022-10-30T20:13:12.164Z,337.80
2022-10-30T20:16:36.596Z,478.80
2022-10-30T20:20:00.034Z,537.20
2022-10-30T20:23:24.626Z,409.30
2022-10-30T20:26:49.920Z,408.60
2022-10-30T20:30:17.116Z,492.90
2022-10-30T20:34:21.513Z,413.50
2022-10-30T20:38:00.524Z,457.10
2022-10-30T20:41:29.927Z,476.70
2022-10-30T20:44:57.034Z,415.70
2022-10-30T20:48:24.084Z,296.00
2022-10-30T20:51:50.881Z,204.60
2022-10-30T20:55:20.451Z,154.90
2022-10-30T20:58:47.247Z,207.80
2022-10-30T21:02:14.489Z,248.20
2022-10-30T21:05:44.330Z,204.80
2022-10-30T21:09:12.902Z,178.10
2022-10-30T21:12:39.595Z,160.00
2022-10-30T21:16:09.615Z,190.80
2022-10-30T21:23:01.890Z,157.70
2022-10-30T21:26:28.836Z,130.90
2022-10-30T21:29:55.484Z,173.30
2022-10-30T21:33:22.603Z,164.00
2022-10-30T21:36:49.558Z,155.20
2022-10-30T21:40:16.963Z,146.70
2022-10-30T21:43:44.043Z,124.00
2022-10-30T21:47:10.786Z,172.20
2022-10-30T21:50:37.504Z,195.60
2022-10-30T21:54:05.358Z,196.00
2022-10-30T21:57:32.433Z,178.80
2022-10-30T22:00:59.311Z,187.90
2022-10-30T22:04:26.103Z,201.40
2022-10-30T22:07:54.555Z,268.20
2022-10-30T22:11:23.221Z,213.50
2022-10-30T22:14:50.788Z,160.80
2022-10-30T22:18:17.785Z,141.30
2022-10-30T22:21:45.141Z,162.40
2022-10-30T22:25:12.845Z,136.70
2022-10-30T22:28:39.867Z,150.30
2022-10-30T22:32:07.646Z,113.00
2022-10-30T22:35:34.313Z,137.40
2022-10-30T22:39:02.912Z,132.00
2022-10-30T22:42:29.740Z,116.30
2022-10-30T22:45:57.265Z,146.00
2022-10-30T22:49:23.876Z,126.40
